Time;durP1;ratioP1;P1;durP2;ratioP2;P2;SDS_P1;SDS_P2;PMS_P1;PMS_P2;Temp;Humidity;BMP_temperature;BMP_pressure;BME280_temperature;BME280_humidity;BME280_pressure;Samples;Min_cycle;Max_cycle;Signal;HPM_P1;HPM_P2
2021/09/13 00:02:10;;;;;;;10.52;5.30;;;22.90;86.70;;;;;;6247604;23;20000;-80
2021/09/13 00:04:36;;;;;;;11.15;5.57;;;22.90;86.10;;;;;;6247652;23;20027;-78
2021/09/13 00:07:02;;;;;;;10.55;6.00;;;22.80;86.10;;;;;;6248298;23;20078;-80
2021/09/13 00:09:27;;;;;;;10.77;5.20;;;22.70;86.20;;;;;;6247786;23;20040;-79
2021/09/13 00:11:53;;;;;;;18.65;5.43;;;22.70;87.10;;;;;;6247638;23;20027;-79
2021/09/13 00:14:20;;;;;;;12.63;5.40;;;22.60;87.40;;;;;;6247663;23;20024;-80
2021/09/13 00:16:46;;;;;;;8.65;5.82;;;22.50;87.50;;;;;;6247806;23;20015;-80
2021/09/13 00:19:12;;;;;;;10.52;5.47;;;22.40;87.70;;;;;;6247587;23;20000;-79
2021/09/13 00:21:37;;;;;;;7.82;5.18;;;22.40;88.10;;;;;;6247451;23;20003;-80
2021/09/13 00:24:03;;;;;;;11.63;5.88;;;22.30;88.30;;;;;;6247950;23;20062;-80
2021/09/13 00:26:29;;;;;;;11.05;5.78;;;22.30;88.40;;;;;;6247671;23;20308;-80
2021/09/13 00:28:55;;;;;;;8.63;5.32;;;22.30;88.40;;;;;;6247550;23;20007;-79
2021/09/13 00:31:20;;;;;;;17.02;5.57;;;22.20;88.40;;;;;;6247411;23;20448;-77
2021/09/13 00:33:46;;;;;;;13.63;5.55;;;22.20;88.60;;;;;;6247482;23;20322;-78
2021/09/13 00:36:12;;;;;;;20.40;5.97;;;22.30;88.40;;;;;;6247213;23;20008;-80
2021/09/13 00:38:37;;;;;;;10.10;5.50;;;22.20;88.10;;;;;;6247499;23;20008;-79
2021/09/13 00:41:03;;;;;;;9.65;5.50;;;22.20;88.20;;;;;;6247619;23;20012;-80
2021/09/13 00:43:29;;;;;;;14.07;5.93;;;22.20;88.30;;;;;;6247415;23;20003;-78
2021/09/13 00:45:55;;;;;;;10.38;5.43;;;22.20;88.30;;;;;;6247309;23;20015;-80
2021/09/13 00:48:21;;;;;;;17.13;5.47;;;22.20;87.90;;;;;;6247169;23;20001;-79
2021/09/13 00:50:47;;;;;;;13.25;5.28;;;22.20;87.60;;;;;;6247585;23;20346;-79
2021/09/13 00:53:13;;;;;;;10.48;5.88;;;22.20;87.50;;;;;;6247553;23;20072;-81
2021/09/13 00:55:38;;;;;;;15.57;6.20;;;22.20;87.40;;;;;;6247401;23;20004;-80
2021/09/13 00:58:04;;;;;;;15.63;4.90;;;22.30;87.40;;;;;;6247032;23;20374;-79
2021/09/13 01:00:30;;;;;;;11.93;5.45;;;22.30;87.00;;;;;;6220383;23;20008;-81
2021/09/13 01:02:55;;;;;;;22.60;5.30;;;22.40;87.20;;;;;;6248716;23;19997;-79
2021/09/13 01:05:21;;;;;;;12.52;6.10;;;22.40;87.20;;;;;;6247161;23;20111;-79
2021/09/13 01:07:47;;;;;;;11.63;5.80;;;22.40;87.20;;;;;;6247010;23;20067;-80
2021/09/13 01:41:24;;;;;;;;;;;;;;;;;;;;;
2021/09/13 01:44:02;;;;;;;9.90;5.38;;;22.30;87.40;;;;;;6149733;23;20311;-89
2021/09/13 01:46:39;;;;;;;18.98;6.30;;;22.30;87.30;;;;;;6215563;23;20088;-83
2021/09/13 01:49:07;;;;;;;11.93;5.60;;;22.30;87.60;;;;;;6215252;23;20008;-89
2021/09/13 01:51:33;;;;;;;8.05;5.57;;;22.30;87.60;;;;;;6215383;23;20388;-85
2021/09/13 01:53:59;;;;;;;16.00;5.88;;;22.30;87.50;;;;;;6215377;23;20067;-87
2021/09/13 01:56:26;;;;;;;8.07;5.63;;;22.20;87.70;;;;;;6215505;23;20000;-85
2021/09/13 01:58:52;;;;;;;6.97;5.40;;;22.20;87.80;;;;;;6214968;23;20071;-87
2021/09/13 02:01:21;;;;;;;7.53;5.50;;;22.20;87.70;;;;;;6215139;23;20079;-84
2021/09/13 02:03:47;;;;;;;8.07;5.15;;;22.20;87.70;;;;;;6215093;23;20012;-84
2021/09/13 02:06:14;;;;;;;16.40;5.55;;;22.20;87.70;;;;;;6215444;23;20003;-83
2021/09/13 02:08:40;;;;;;;8.43;5.50;;;22.20;87.50;;;;;;6215264;23;20001;-83
2021/09/13 02:11:07;;;;;;;17.88;6.20;;;22.30;87.20;;;;;;6214663;23;20016;-85
2021/09/13 02:13:35;;;;;;;7.07;5.28;;;22.20;86.70;;;;;;6215272;23;19996;-86
2021/09/13 02:16:04;;;;;;;17.50;5.97;;;22.30;86.80;;;;;;6214991;23;20083;-88
2021/09/13 02:18:30;;;;;;;12.45;5.45;;;22.40;86.70;;;;;;6215044;23;20004;-88
2021/09/13 02:20:56;;;;;;;9.57;5.15;;;22.40;86.60;;;;;;6214968;23;20001;-86
2021/09/13 02:23:22;;;;;;;14.98;5.78;;;22.40;86.70;;;;;;6188611;23;20005;-84
2021/09/13 02:25:50;;;;;;;15.52;5.60;;;22.40;86.50;;;;;;6215042;23;20055;-85
2021/09/13 02:28:16;;;;;;;16.85;5.50;;;22.50;86.50;;;;;;6215052;23;19997;-86
2021/09/13 02:30:42;;;;;;;10.88;5.30;;;22.50;86.40;;;;;;6214731;23;20009;-85
2021/09/13 02:33:09;;;;;;;9.82;5.30;;;22.50;86.30;;;;;;6215078;23;20548;-83
2021/09/13 02:35:38;;;;;;;10.52;6.28;;;22.50;86.40;;;;;;6215103;23;20007;-84
2021/09/13 02:38:04;;;;;;;17.17;6.28;;;22.50;86.40;;;;;;6237226;23;20433;-83
2021/09/13 02:40:30;;;;;;;10.95;5.30;;;22.50;86.50;;;;;;6245227;23;20326;-83
2021/09/13 02:42:58;;;;;;;13.38;6.10;;;22.40;86.60;;;;;;6244863;23;19993;-85
2021/09/13 02:45:24;;;;;;;9.75;5.45;;;22.40;86.80;;;;;;6245341;23;20003;-86
2021/09/13 02:47:50;;;;;;;8.57;5.25;;;22.30;86.80;;;;;;6245376;23;20058;-84
2021/09/13 02:50:19;;;;;;;9.75;5.20;;;22.30;87.00;;;;;;6244870;23;20035;-85
2021/09/13 02:52:48;;;;;;;12.07;5.75;;;22.30;87.10;;;;;;6245476;23;20007;-84
2021/09/13 02:55:14;;;;;;;7.82;4.90;;;22.20;87.40;;;;;;6245269;23;20083;-87
2021/09/13 02:57:40;;;;;;;19.25;6.47;;;22.20;87.40;;;;;;6245157;23;20454;-85
2021/09/13 03:00:06;;;;;;;14.35;5.85;;;22.10;87.40;;;;;;6245135;23;20008;-87
2021/09/13 03:02:32;;;;;;;11.88;5.82;;;22.10;87.60;;;;;;6244875;23;20007;-86
2021/09/13 03:04:58;;;;;;;9.10;5.53;;;22.00;87.60;;;;;;6244912;23;20083;-88
2021/09/13 03:07:24;;;;;;;8.98;5.97;;;22.00;87.80;;;;;;6245118;23;20000;-88
2021/09/13 03:09:50;;;;;;;18.23;5.88;;;22.00;87.90;;;;;;6244943;23;20027;-84
2021/09/13 03:12:16;;;;;;;20.65;5.88;;;21.90;87.90;;;;;;6244334;23;20000;-85
2021/09/13 03:14:42;;;;;;;14.25;6.25;;;21.90;88.00;;;;;;6244931;23;20427;-84
2021/09/13 03:17:08;;;;;;;11.32;5.40;;;21.90;88.30;;;;;;6245352;23;20004;-84
2021/09/13 03:19:34;;;;;;;10.90;6.22;;;21.90;88.30;;;;;;6246052;23;20000;-83
2021/09/13 03:22:00;;;;;;;14.55;5.30;;;21.90;88.40;;;;;;6245852;23;20042;-88
2021/09/13 03:24:26;;;;;;;12.95;5.75;;;21.90;88.40;;;;;;6245824;23;20327;-87
2021/09/13 03:26:52;;;;;;;13.15;5.85;;;21.90;88.40;;;;;;6245905;23;20004;-85
2021/09/13 03:29:18;;;;;;;12.80;6.07;;;21.80;88.40;;;;;;6245962;23;20019;-88
2021/09/13 03:31:44;;;;;;;16.50;5.50;;;21.80;88.40;;;;;;6245799;23;20008;-84
2021/09/13 03:34:14;;;;;;;13.05;6.00;;;21.80;88.40;;;;;;6245743;23;20000;-87
2021/09/13 03:36:40;;;;;;;11.20;6.25;;;21.80;88.40;;;;;;6245644;23;20004;-84
2021/09/13 03:39:07;;;;;;;12.07;5.57;;;21.70;88.70;;;;;;6245966;23;20016;-87
2021/09/13 03:41:33;;;;;;;13.15;5.22;;;21.70;89.00;;;;;;6245495;23;20130;-89
2021/09/13 03:43:59;;;;;;;9.10;5.50;;;21.70;89.00;;;;;;6245905;23;20031;-88
2021/09/13 03:46:25;;;;;;;16.27;5.68;;;21.70;88.90;;;;;;6245713;23;19996;-86
2021/09/13 03:48:51;;;;;;;17.48;6.03;;;21.70;88.70;;;;;;6245587;23;20000;-84
2021/09/13 03:51:17;;;;;;;15.60;5.78;;;21.70;88.70;;;;;;6245413;23;20022;-85
2021/09/13 03:53:43;;;;;;;12.15;6.00;;;21.80;88.60;;;;;;6245830;23;19996;-86
2021/09/13 03:56:09;;;;;;;23.65;6.75;;;21.80;88.50;;;;;;6245649;23;20025;-88
2021/09/13 03:58:35;;;;;;;18.48;6.72;;;21.80;88.50;;;;;;6245585;23;20080;-84
2021/09/13 04:01:01;;;;;;;28.08;6.38;;;21.80;88.40;;;;;;6246230;23;20314;-87
2021/09/13 04:03:33;;;;;;;7.63;5.45;;;21.80;88.40;;;;;;6245764;23;20009;-87
2021/09/13 04:05:59;;;;;;;13.30;5.63;;;21.80;88.30;;;;;;6245856;23;20007;-84
2021/09/13 04:08:57;;;;;;;10.02;5.53;;;21.80;88.30;;;;;;6218722;23;20011;-88
2021/09/13 04:11:26;;;;;;;13.60;5.72;;;21.80;88.10;;;;;;6245400;23;20019;-84
2021/09/13 04:13:52;;;;;;;12.88;5.90;;;21.80;88.30;;;;;;6245454;23;20000;-83
2021/09/13 04:16:18;;;;;;;21.80;5.45;;;21.80;88.30;;;;;;6245737;23;20075;-87
2021/09/13 04:18:46;;;;;;;13.85;5.55;;;21.80;88.40;;;;;;6245711;23;20043;-88
2021/09/13 04:21:13;;;;;;;12.23;5.80;;;21.70;88.50;;;;;;6218646;23;20055;-84
2021/09/13 04:23:39;;;;;;;15.88;5.70;;;21.70;88.60;;;;;;6246857;23;20008;-88
2021/09/13 04:26:05;;;;;;;13.38;5.85;;;21.70;88.60;;;;;;6247618;23;20347;-87
2021/09/13 04:28:31;;;;;;;12.82;6.07;;;21.70;88.40;;;;;;6247379;23;19996;-84
2021/09/13 04:30:59;;;;;;;13.00;6.13;;;21.70;88.70;;;;;;6247327;23;20039;-87
2021/09/13 04:33:25;;;;;;;9.95;5.68;;;21.70;88.80;;;;;;6247138;23;20023;-86
2021/09/13 04:35:51;;;;;;;18.70;6.63;;;21.70;88.90;;;;;;6247440;23;20039;-88
2021/09/13 04:38:17;;;;;;;21.10;6.00;;;21.70;88.90;;;;;;6247249;23;20016;-86
2021/09/13 04:40:43;;;;;;;16.27;5.95;;;21.70;88.80;;;;;;6247214;23;20004;-88
2021/09/13 04:43:11;;;;;;;14.93;6.00;;;21.60;88.80;;;;;;6247071;23;19996;-88
2021/09/13 04:45:37;;;;;;;9.52;5.88;;;21.60;88.80;;;;;;6247322;23;20008;-86
2021/09/13 04:48:03;;;;;;;17.83;6.00;;;21.60;88.90;;;;;;6247255;23;20000;-86
2021/09/13 04:50:29;;;;;;;13.65;6.43;;;21.70;89.00;;;;;;6247194;23;20055;-87
2021/09/13 04:52:55;;;;;;;12.45;5.72;;;21.70;88.90;;;;;;6247150;23;19996;-88
2021/09/13 04:55:21;;;;;;;14.32;6.18;;;21.70;88.80;;;;;;6247025;23;20010;-84
2021/09/13 04:57:47;;;;;;;23.90;5.68;;;21.70;88.60;;;;;;6247253;23;20008;-88
2021/09/13 05:00:15;;;;;;;14.45;6.07;;;21.80;88.40;;;;;;6247295;23;20000;-89
2021/09/13 05:02:41;;;;;;;13.82;6.40;;;21.80;88.40;;;;;;6247024;23;20433;-84
2021/09/13 05:05:08;;;;;;;14.25;5.68;;;21.80;88.40;;;;;;6247030;23;20008;-84
2021/09/13 05:07:34;;;;;;;9.45;5.35;;;21.80;88.30;;;;;;6247604;23;20033;-85
2021/09/13 05:10:02;;;;;;;8.82;5.65;;;21.80;88.30;;;;;;6219944;23;20020;-85
2021/09/13 05:12:27;;;;;;;18.73;6.38;;;21.90;88.30;;;;;;6247055;23;20000;-84
2021/09/13 05:14:53;;;;;;;14.50;5.97;;;22.10;88.10;;;;;;6246698;23;20035;-85
2021/09/13 05:17:19;;;;;;;14.70;5.78;;;22.40;87.40;;;;;;6247075;23;20003;-86
2021/09/13 05:19:45;;;;;;;19.80;5.82;;;22.70;86.80;;;;;;6246955;23;20327;-84
2021/09/13 05:22:11;;;;;;;11.70;6.15;;;22.90;86.10;;;;;;6246886;23;20323;-84
2021/09/13 05:24:37;;;;;;;8.35;6.47;;;23.20;86.20;;;;;;6246760;23;20004;-85
2021/09/13 05:27:03;;;;;;;11.07;5.65;;;23.50;85.00;;;;;;6246852;23;20054;-86
2021/09/13 05:29:29;;;;;;;14.60;5.90;;;23.70;84.20;;;;;;6246737;23;20000;-85
2021/09/13 05:31:54;;;;;;;10.23;5.85;;;24.00;83.30;;;;;;6246811;23;20326;-85
2021/09/13 05:34:20;;;;;;;18.17;5.80;;;24.10;83.00;;;;;;6246445;23;20008;-86
2021/09/13 05:36:46;;;;;;;15.10;4.88;;;24.30;82.60;;;;;;6246257;23;20004;-83
2021/09/13 10:05:43;;;;;;;;;;;;;;;;;;;;;
2021/09/13 12:31:28;;;;;;;;;;;;;;;;;;;;;
2021/09/13 13:05:32;;;;;;;;;;;;;;;;;;;;;
2021/09/13 15:20:44;;;;;;;;;;;;;;;;;;;;;
2021/09/13 16:33:17;;;;;;;10.90;5.68;;;27.30;80.70;;;;;;6184682;23;20542;-89
2021/09/13 16:59:52;;;;;;;15.65;5.90;;;27.00;84.20;;;;;;6011796;23;20014;-91
2021/09/13 17:26:17;;;;;;;11.52;6.55;;;26.30;87.90;;;;;;6167758;23;20356;-83
2021/09/13 17:28:46;;;;;;;14.75;6.70;;;26.20;88.60;;;;;;6156798;23;20104;-83
2021/09/13 17:41:49;;;;;;;30.00;8.40;;;26.00;89.10;;;;;;6037862;23;20143;-83
2021/09/13 17:44:18;;;;;;;16.52;7.43;;;25.90;89.70;;;;;;6042600;23;20035;-82
2021/09/13 18:17:34;;;;;;;25.52;7.68;;;25.50;89.00;;;;;;5955394;23;20401;-88
2021/09/13 18:30:34;;;;;;;23.83;8.60;;;25.10;89.90;;;;;;5923593;24;20140;-90
2021/09/13 18:41:01;;;;;;;;;;;;;;;;;;;;;
2021/09/13 20:23:59;;;;;;;21.85;6.30;;;23.40;85.50;;;;;;6039152;23;20151;-86
2021/09/13 20:26:26;;;;;;;11.23;5.95;;;23.30;85.40;;;;;;6037620;23;20015;-86
2021/09/13 20:28:52;;;;;;;13.93;6.72;;;23.30;85.10;;;;;;6074293;23;20390;-85
2021/09/13 20:31:24;;;;;;;17.40;7.00;;;23.30;85.80;;;;;;6187001;23;20027;-86
2021/09/13 20:33:53;;;;;;;9.68;6.50;;;23.30;85.50;;;;;;6186912;23;20324;-86
2021/09/13 20:36:23;;;;;;;16.90;6.85;;;23.20;86.40;;;;;;6186846;23;20067;-87
2021/09/13 20:38:56;;;;;;;9.68;7.07;;;23.20;86.30;;;;;;6160549;23;20009;-85
2021/09/13 20:41:22;;;;;;;10.82;6.45;;;23.20;86.70;;;;;;6186709;23;20344;-86
2021/09/13 20:43:48;;;;;;;12.05;6.75;;;23.10;87.10;;;;;;6186997;23;20324;-88
2021/09/13 20:46:15;;;;;;;17.95;6.55;;;23.10;87.20;;;;;;6187172;23;20328;-86
2021/09/13 20:48:41;;;;;;;15.13;6.32;;;23.10;87.40;;;;;;6186554;23;20011;-84
2021/09/13 20:51:13;;;;;;;10.48;6.35;;;23.10;86.60;;;;;;6186903;23;20075;-86
2021/09/13 20:53:39;;;;;;;13.57;6.97;;;23.10;87.70;;;;;;6186886;23;20059;-86
2021/09/13 20:56:08;;;;;;;10.10;6.43;;;23.10;85.60;;;;;;6186662;23;20005;-86
2021/09/13 20:58:35;;;;;;;10.63;6.28;;;23.00;86.10;;;;;;6186804;23;20103;-86
2021/09/13 21:01:09;;;;;;;9.80;6.15;;;23.00;85.80;;;;;;6160079;23;20336;-86
2021/09/13 21:03:35;;;;;;;10.48;6.88;;;22.90;86.60;;;;;;6186862;23;20333;-86
2021/09/13 21:06:00;;;;;;;10.50;6.72;;;22.90;86.50;;;;;;6186675;23;20001;-85
2021/09/13 21:08:26;;;;;;;12.57;6.40;;;22.90;87.30;;;;;;6186886;23;20030;-86
2021/09/13 21:10:55;;;;;;;11.98;6.60;;;22.90;89.10;;;;;;6186768;23;20001;-86
2021/09/13 21:13:21;;;;;;;8.85;6.07;;;22.90;88.00;;;;;;6186641;23;19997;-87
2021/09/13 21:15:55;;;;;;;9.77;7.10;;;22.80;88.50;;;;;;6186706;23;19997;-87
2021/09/13 21:18:21;;;;;;;12.40;6.07;;;22.70;87.80;;;;;;6186811;23;20055;-86
2021/09/13 21:20:50;;;;;;;16.30;6.57;;;22.70;88.10;;;;;;6186648;23;20017;-86
2021/09/13 21:23:16;;;;;;;14.52;5.93;;;22.60;88.50;;;;;;6186502;23;20064;-86
2021/09/13 21:25:42;;;;;;;8.77;5.82;;;22.60;88.60;;;;;;6159897;23;20009;-86
2021/09/13 21:28:08;;;;;;;14.15;6.93;;;22.50;88.10;;;;;;6186550;23;20008;-85
2021/09/13 21:30:36;;;;;;;10.15;6.22;;;22.50;89.10;;;;;;6186941;23;19997;-86
2021/09/13 21:33:02;;;;;;;14.18;6.72;;;22.50;88.40;;;;;;6160032;23;20386;-86
2021/09/13 21:35:30;;;;;;;12.88;7.07;;;22.60;88.20;;;;;;6159685;23;20111;-86
2021/09/13 21:38:01;;;;;;;10.82;6.47;;;22.60;88.70;;;;;;6186587;23;20052;-86
2021/09/13 21:40:30;;;;;;;11.18;6.07;;;22.60;88.00;;;;;;6185460;23;20540;-86
2021/09/13 21:43:01;;;;;;;9.90;6.30;;;22.60;87.30;;;;;;6185267;23;20024;-85
2021/09/13 21:45:29;;;;;;;15.18;6.88;;;22.60;87.00;;;;;;6185542;23;20011;-86
2021/09/13 21:47:55;;;;;;;9.90;6.00;;;22.60;87.40;;;;;;6158699;23;20005;-86
2021/09/13 21:50:21;;;;;;;15.02;6.57;;;22.50;87.20;;;;;;6185394;23;20028;-85
2021/09/13 21:52:47;;;;;;;13.43;6.53;;;22.50;87.50;;;;;;6185382;23;20485;-86
2021/09/13 21:55:25;;;;;;;18.85;6.43;;;22.50;87.40;;;;;;6184744;23;20072;-85
2021/09/13 21:57:56;;;;;;;13.30;6.25;;;22.40;87.60;;;;;;6159053;23;20012;-86
2021/09/13 22:00:26;;;;;;;8.90;6.15;;;22.50;87.80;;;;;;6185243;23;20001;-85
2021/09/13 22:02:54;;;;;;;14.90;6.68;;;22.40;87.60;;;;;;6158447;23;20019;-86
2021/09/13 22:05:23;;;;;;;7.70;5.97;;;22.40;88.10;;;;;;6159073;23;19997;-86
2021/09/13 22:07:49;;;;;;;11.35;6.70;;;22.40;89.70;;;;;;6185087;23;20001;-85
2021/09/13 22:10:15;;;;;;;9.88;6.05;;;22.30;88.10;;;;;;6185188;23;20125;-85
2021/09/13 22:12:43;;;;;;;11.18;6.15;;;22.40;88.30;;;;;;6158940;23;20005;-85
2021/09/13 22:15:11;;;;;;;13.13;6.07;;;22.30;87.50;;;;;;6185299;23;19997;-86
2021/09/13 22:17:39;;;;;;;11.32;6.22;;;22.30;88.00;;;;;;6184857;23;20649;-85
2021/09/13 22:20:16;;;;;;;11.55;5.70;;;22.30;88.40;;;;;;6158552;23;20005;-86
2021/09/13 22:22:42;;;;;;;13.82;7.28;;;22.30;88.30;;;;;;6185275;23;20059;-86
2021/09/13 22:25:08;;;;;;;8.55;6.75;;;22.30;88.50;;;;;;6158860;23;20016;-86
2021/09/13 22:27:34;;;;;;;13.80;5.80;;;22.30;88.80;;;;;;6185005;23;20001;-87
2021/09/13 22:30:01;;;;;;;10.13;5.72;;;22.30;88.60;;;;;;6185742;23;20001;-86
2021/09/13 22:32:29;;;;;;;11.20;6.20;;;22.30;88.80;;;;;;6185996;23;20028;-86
2021/09/13 22:35:00;;;;;;;11.27;6.53;;;22.30;88.80;;;;;;6185811;23;20024;-85
2021/09/13 22:37:26;;;;;;;11.98;5.80;;;22.30;89.10;;;;;;6185995;23;20001;-86
2021/09/13 22:39:55;;;;;;;11.60;6.55;;;22.30;88.60;;;;;;6159302;23;20056;-86
2021/09/13 22:42:21;;;;;;;9.25;6.25;;;22.20;88.60;;;;;;6185958;23;20013;-85
2021/09/13 22:44:47;;;;;;;20.70;7.05;;;22.20;89.60;;;;;;6185865;23;20072;-86
2021/09/13 22:47:15;;;;;;;17.75;6.70;;;22.10;89.60;;;;;;6185930;23;20029;-85
2021/09/13 22:49:44;;;;;;;8.13;6.55;;;22.10;90.00;;;;;;6186079;23;20004;-86
2021/09/13 22:52:14;;;;;;;7.47;6.18;;;22.10;89.20;;;;;;6159239;23;20005;-86
2021/09/13 22:54:40;;;;;;;13.30;6.82;;;22.00;90.00;;;;;;6185946;23;20051;-86
2021/09/13 22:57:06;;;;;;;12.98;5.90;;;22.00;90.10;;;;;;6185820;23;20009;-86
2021/09/13 22:59:35;;;;;;;12.38;6.40;;;21.90;90.00;;;;;;6185838;23;19997;-87
2021/09/13 23:02:01;;;;;;;13.25;6.85;;;21.90;89.90;;;;;;6185530;23;20514;-86
2021/09/13 23:04:27;;;;;;;14.35;6.57;;;21.90;90.20;;;;;;6185687;23;19997;-86
2021/09/13 23:06:53;;;;;;;11.30;5.97;;;21.90;90.20;;;;;;6185545;23;20080;-86
2021/09/13 23:09:19;;;;;;;8.60;6.45;;;21.90;90.10;;;;;;6185415;23;19997;-86
2021/09/13 23:11:45;;;;;;;9.82;6.43;;;21.90;90.10;;;;;;6186247;23;20012;-85
2021/09/13 23:14:11;;;;;;;24.73;7.25;;;21.90;89.90;;;;;;6159183;23;20012;-86
2021/09/13 23:16:40;;;;;;;8.60;6.40;;;22.00;90.10;;;;;;6158781;23;20332;-86
2021/09/13 23:19:06;;;;;;;13.73;6.28;;;22.00;90.30;;;;;;6185899;23;19997;-87
2021/09/13 23:21:34;;;;;;;12.95;7.00;;;22.00;90.40;;;;;;6185538;23;20013;-86
2021/09/13 23:24:02;;;;;;;11.20;6.50;;;22.00;90.30;;;;;;6185568;23;20024;-86
2021/09/13 23:26:31;;;;;;;12.63;6.68;;;22.00;90.30;;;;;;6185301;23;20524;-86
2021/09/13 23:28:57;;;;;;;14.15;6.25;;;22.10;90.30;;;;;;6185546;23;20505;-86
2021/09/13 23:31:25;;;;;;;14.40;6.50;;;22.10;90.10;;;;;;6185511;23;20044;-86
2021/09/13 23:33:52;;;;;;;12.68;6.43;;;22.10;90.20;;;;;;6185145;23;20008;-86
2021/09/13 23:36:17;;;;;;;8.30;6.72;;;22.10;89.90;;;;;;6185534;23;20456;-87
2021/09/13 23:38:43;;;;;;;15.57;6.70;;;22.20;90.00;;;;;;6185362;23;20005;-86
2021/09/13 23:41:09;;;;;;;8.07;6.05;;;22.20;90.00;;;;;;6158967;23;20020;-87
2021/09/13 23:43:35;;;;;;;9.52;6.82;;;22.20;90.30;;;;;;6158851;23;20451;-88
2021/09/13 23:46:04;;;;;;;9.70;7.00;;;22.20;90.40;;;;;;6185526;23;20028;-86
2021/09/13 23:48:32;;;;;;;11.90;6.78;;;22.20;90.20;;;;;;6185497;23;20451;-87
2021/09/13 23:50:58;;;;;;;10.70;6.88;;;22.30;90.20;;;;;;6185254;23;20009;-87
2021/09/13 23:53:29;;;;;;;8.98;6.57;;;22.30;90.00;;;;;;6185546;23;20051;-87
2021/09/13 23:55:54;;;;;;;14.38;6.93;;;22.40;90.00;;;;;;6185488;23;20447;-87
2021/09/13 23:58:20;;;;;;;12.43;6.55;;;22.40;90.00;;;;;;6158727;23;20016;-86
